Madisonville, LA

11:09 AM CDT on May 22, 2015 (GMT -0500)
Hammond Municipal | | Change Station
CLOSE
Current Station
Airport
Location: Hammond,
Elevation: 43 ft
Nearby Weather Stations
Active Advisory: Flood Warning

Elev 43 ft 30.52 °N, 90.42 °W | Updated 14 minutes ago

Clear
Clear
72 °F
Feels Like 72 °F
N
4
Wind Variable Wind from NE

Today
High -- | Low -- °F
--% Chance of Precip.
Yesterday
High -- | Low -- °F
Precip. -- in
6:02 AM 7:52 PM
Waxing Crescent, 22% visible
Pressure 30.20 in
Visibility 10.0 miles
Clouds Clear
Dew Point 57 °F
Humidity 60%
Rainfall 0.00 in
Snow Depth Not available.
UV 11 out of 12
Pollen 4.60 out of 12
Air Quality Not available.
Flu Activity Sporadic
METAR KHDC 221555Z AUTO 05003KT 10SM CLR 22/14 A3020 RMK AO2

More Conditions Fewer Conditions

Pressure 30.20 in
Visibility 10.0 miles
Clouds Clear
Dew Point 57 °F
Humidity 60%
Rainfall 0.00 in
Snow Depth Not available.
UV 11 out of 12
Pollen 4.60 out of 12
Air Quality Not available.
Flu Activity Sporadic
METAR KHDC 221555Z AUTO 05003KT 10SM CLR 22/14 A3020 RMK AO2

More Conditions Fewer Conditions

10-Day Weather Forecast

Almanac

Astronomy

May. 22, 2015 Rise Set
Actual Time
Civil Twilight
Nautical Twilight
Astronomical Twilight
Moon
Length of Visible Light
Length of Day
Tomorrow will be .
, % of the Moon is Illuminated

Today's Extremes

State Highs State Lows

Community

WunderPhotos

Upload Photos

1,823,251 photos uploaded!

WunderBlogs® & News

Nearby

Air Quality

  Air Quality AQ Index Pollutant
Not available.

Snow Depth

Station Depth Elevation

Earthquake Activity

City Distance Mag. Time & Date
Minimum magnitude displayed is 2.5.

Coastal Water Temperatures

Place Temperature

Stations

Nearby Weather Stations

Station Location Temp. Windchill Dew Point Humidity Wind Precip. Elev Updated Type
                   
Flood Warning
Statement as of 9:19 AM CDT on May 22, 2015

... Flood Warning extended until Saturday morning... the Flood Warning
continues for
the Bogue falaya river at Boston St in Covington.
* Until Saturday morning.
* At 8:30 am Friday the stage was 6.4 feet.
* Minor flooding is occurring and minor flooding is forecast.
* Flood stage is 6.0 feet.
* Forecast... the river will continue rising to near 7.0 feet by this
evening. The river will fall below flood stage early tomorrow.
* Impact... at 7.0 feet... water will rise onto the right bank flooding
property of the Bogue falaya towers at East Boston street and
threatening commercial property on the left bank near military
Road. Bogue falaya River Park and christ episcopal school grounds
will begin to flood
* impact... at 6.0 feet... the river will leave its banks under the
Boston street bridge and begin to flood the Boston towers property


Lat... Lon 3052 9004 3052 9014 3042 9016 3042 9004